createdAt,value
2023-01-11T00:02:48.228Z,99287.81
2023-01-11T00:07:50.592Z,99291.24
2023-01-11T00:13:01.299Z,99284.64
2023-01-11T00:18:03.131Z,99282.86
2023-01-11T00:23:04.903Z,99286.75
2023-01-11T00:28:07.360Z,99281.35
2023-01-11T00:33:10.924Z,99281.52
2023-01-11T00:38:32.912Z,99286.46
2023-01-11T00:43:53.185Z,99283.64
2023-01-11T00:49:04.083Z,99285.72
2023-01-11T00:54:05.829Z,99287.21
2023-01-11T00:59:08.156Z,99283.98
2023-01-11T01:04:10.949Z,99283.25
2023-01-11T01:09:12.936Z,99288.53
2023-01-11T01:14:30.863Z,99292.11
2023-01-11T01:19:34.636Z,99290.26
2023-01-11T01:24:36.739Z,99291.93
2023-01-11T01:29:38.423Z,99291.63
2023-01-11T01:34:40.348Z,99296.53
2023-01-11T01:39:42.318Z,99290.88
2023-01-11T01:45:12.750Z,99287.98
2023-01-11T01:50:17.100Z,99283.43
2023-01-11T01:55:35.056Z,99279.38
2023-01-11T02:00:42.407Z,99276.15
2023-01-11T02:05:44.959Z,99273.90
2023-01-11T02:10:47.111Z,99273.34
2023-01-11T02:16:07.871Z,99265.66
2023-01-11T02:21:40.791Z,99262.13
2023-01-11T02:26:51.707Z,99252.65
2023-01-11T02:32:06.253Z,99252.59
2023-01-11T02:37:28.683Z,99248.66
2023-01-11T02:43:11.240Z,99248.48
2023-01-11T02:48:30.664Z,99257.85
2023-01-11T02:53:43.549Z,99262.85
2023-01-11T02:58:48.181Z,99267.41
2023-01-11T03:03:50.817Z,99264.73
2023-01-11T03:09:19.121Z,99255.02
2023-01-11T03:14:27.303Z,99253.16
2023-01-11T03:19:46.638Z,99245.34
2023-01-11T03:25:13.865Z,99250.06
2023-01-11T03:30:21.421Z,99249.72
2023-01-11T03:35:29.009Z,99253.05
2023-01-11T03:40:36.273Z,99244.27
2023-01-11T03:45:55.980Z,99239.04
2023-01-11T03:51:01.734Z,99234.36
2023-01-11T03:56:09.366Z,99233.09
2023-01-11T04:01:12.539Z,99230.23
2023-01-11T04:06:14.430Z,99244.48
2023-01-11T04:11:16.154Z,99239.30
2023-01-11T04:16:17.917Z,99231.20
2023-01-11T04:21:19.767Z,99226.31
2023-01-11T04:26:21.660Z,99227.84
2023-01-11T04:31:23.515Z,99231.18
2023-01-11T04:36:26.449Z,99226.84
2023-01-11T04:41:46.725Z,99216.75
2023-01-11T04:46:48.534Z,99212.31
2023-01-11T04:51:50.229Z,99208.27
2023-01-11T04:56:52.083Z,99206.88
2023-01-11T05:01:54.020Z,99202.05
2023-01-11T05:06:55.803Z,99199.83
2023-01-11T05:11:57.459Z,99196.00
2023-01-11T05:16:59.256Z,99190.52
2023-01-11T05:22:00.955Z,99187.42
2023-01-11T05:27:03.586Z,99175.85
2023-01-11T05:32:05.815Z,99178.76
2023-01-11T05:37:07.567Z,99175.90
2023-01-11T05:42:09.344Z,99172.58
2023-01-11T05:47:11.250Z,99173.46
2023-01-11T05:52:13.133Z,99177.23
2023-01-11T05:57:15.132Z,99175.82
2023-01-11T06:02:16.972Z,99173.19
2023-01-11T06:07:18.782Z,99166.02
2023-01-11T06:12:20.605Z,99163.54
2023-01-11T06:17:22.333Z,99163.79
2023-01-11T06:22:24.042Z,99166.20
2023-01-11T06:27:25.843Z,99162.55
2023-01-11T06:32:29.784Z,99155.26
2023-01-11T06:37:31.893Z,99157.64
2023-01-11T06:42:33.560Z,99150.98
2023-01-11T06:47:35.292Z,99138.42
2023-01-11T06:52:36.939Z,99160.69
2023-01-11T06:57:38.601Z,99156.42
2023-01-11T07:02:40.313Z,99159.73
2023-01-11T07:07:43.649Z,99163.30
2023-01-11T07:12:45.619Z,99168.55
2023-01-11T07:17:49.309Z,99161.45
2023-01-11T07:22:51.568Z,99155.81
2023-01-11T07:27:57.259Z,99146.56
2023-01-11T07:32:59.653Z,99138.02
2023-01-11T07:38:02.897Z,99135.30
2023-01-11T07:43:18.820Z,99134.55
2023-01-11T07:48:26.057Z,99133.79
2023-01-11T07:53:27.732Z,99135.76
2023-01-11T07:58:29.415Z,99123.34
2023-01-11T08:03:31.400Z,99121.59
2023-01-11T08:08:33.195Z,99114.72
2023-01-11T08:13:53.740Z,99116.86
2023-01-11T08:18:55.421Z,99114.73
2023-01-11T08:23:58.796Z,99106.08
2023-01-11T08:29:00.484Z,99108.04
2023-01-11T08:34:02.171Z,99105.66
2023-01-11T08:39:04.138Z,99115.50
2023-01-11T08:44:08.735Z,99130.03
2023-01-11T08:49:12.373Z,99137.48
2023-01-11T08:54:14.553Z,99135.31
2023-01-11T08:59:16.248Z,99139.77
2023-01-11T09:04:24.804Z,99140.30
2023-01-11T09:09:27.157Z,99145.80
2023-01-11T09:14:29.307Z,99145.95
2023-01-11T09:19:33.418Z,99140.66
2023-01-11T09:24:35.178Z,99133.72
2023-01-11T09:29:37.816Z,99130.94
2023-01-11T09:34:41.219Z,99126.13
2023-01-11T09:39:43.236Z,99120.05
2023-01-11T09:44:56.722Z,99104.64
2023-01-11T09:50:02.033Z,99098.97
2023-01-11T09:55:05.427Z,99082.70
2023-01-11T10:00:42.589Z,99078.85
2023-01-11T10:06:02.766Z,99068.30
2023-01-11T10:18:41.441Z,99067.23
2023-01-11T10:22:33.730Z,99059.98
2023-01-11T10:27:39.730Z,99045.79
2023-01-11T10:32:54.312Z,99035.14
2023-01-11T10:38:22.970Z,99034.33
2023-01-11T10:43:28.933Z,99032.13
2023-01-11T10:48:34.609Z,99026.73
2023-01-11T10:53:49.972Z,99020.92
2023-01-11T10:59:22.656Z,99019.70
2023-01-11T11:05:00.599Z,99011.77
2023-01-11T11:10:02.234Z,99008.92
2023-01-11T11:15:21.710Z,99002.71
2023-01-11T11:20:34.357Z,98998.25
2023-01-11T11:25:43.328Z,98990.41
2023-01-11T11:30:48.270Z,98983.29
2023-01-11T11:36:04.966Z,98970.45
2023-01-11T11:41:12.433Z,98964.98
2023-01-11T11:46:18.817Z,98948.50
2023-01-11T11:51:23.222Z,98935.36
2023-01-11T11:56:28.925Z,98927.13
2023-01-11T12:01:35.515Z,98927.89
2023-01-11T12:06:38.089Z,98923.26
2023-01-11T12:11:42.150Z,98908.20
2023-01-11T12:16:45.798Z,98909.09
2023-01-11T12:21:47.624Z,98913.00
2023-01-11T12:27:04.543Z,98908.45
2023-01-11T12:32:20.834Z,98895.79
2023-01-11T12:37:47.295Z,98892.39
2023-01-11T12:43:08.764Z,98883.39
2023-01-11T12:48:38.558Z,98876.94
2023-01-11T12:53:49.348Z,98845.05
2023-01-11T12:59:29.436Z,98854.04
2023-01-11T13:04:52.543Z,98847.00
2023-01-11T13:10:06.050Z,98842.70
2023-01-11T13:15:34.642Z,98828.17
2023-01-11T13:21:00.056Z,98821.54
2023-01-11T13:26:19.727Z,98818.32
2023-01-11T13:31:22.735Z,98816.33
2023-01-11T13:36:30.704Z,98809.07
2023-01-11T13:41:39.711Z,98805.66
2023-01-11T13:47:02.506Z,98799.09
2023-01-11T13:52:12.786Z,98803.30
2023-01-11T13:57:27.223Z,98806.18
2023-01-11T14:02:46.570Z,98808.31
2023-01-11T14:08:19.511Z,98809.77
2023-01-11T14:13:56.023Z,98808.44
2023-01-11T14:19:06.063Z,98811.00
2023-01-11T14:24:10.153Z,98812.00
2023-01-11T14:29:30.599Z,98808.13
2023-01-11T14:34:41.904Z,98807.84
2023-01-11T14:40:02.066Z,98811.65
2023-01-11T14:45:22.429Z,98812.99
2023-01-11T14:50:45.779Z,98808.31
2023-01-11T14:55:49.073Z,98797.98
2023-01-11T15:00:53.554Z,98795.75
2023-01-11T15:06:00.340Z,98790.15
2023-01-11T15:11:22.777Z,98783.04
2023-01-11T15:16:46.283Z,98773.10
2023-01-11T15:21:50.337Z,98768.91
2023-01-11T15:26:52.775Z,98762.67
2023-01-11T15:31:54.875Z,98757.67
2023-01-11T15:37:03.537Z,98752.33
2023-01-11T15:42:31.839Z,98755.27
2023-01-11T15:47:54.486Z,98765.52
2023-01-11T15:53:06.866Z,98766.66
2023-01-11T15:58:29.783Z,98760.72
2023-01-11T16:03:54.151Z,98757.45
2023-01-11T16:09:49.940Z,98752.84
2023-01-11T16:15:12.892Z,98748.17
2023-01-11T16:20:20.531Z,98747.11
2023-01-11T16:25:25.303Z,98749.89
2023-01-11T16:30:28.458Z,98742.57
2023-01-11T16:35:30.170Z,98743.34
2023-01-11T16:40:40.189Z,98745.26
2023-01-11T16:45:44.659Z,98748.89
2023-01-11T16:50:59.391Z,98744.09
2023-01-11T16:56:15.778Z,98743.59
2023-01-11T17:01:17.510Z,98749.52
2023-01-11T17:06:24.551Z,98754.77
2023-01-11T17:11:39.476Z,98750.33
2023-01-11T17:16:45.236Z,98760.66
2023-01-11T17:21:50.858Z,98765.27
2023-01-11T17:26:58.806Z,98759.85
2023-01-11T17:32:04.524Z,98760.91
2023-01-11T17:37:11.152Z,98757.77
2023-01-11T17:42:34.069Z,98756.56
2023-01-11T17:47:42.766Z,98753.63
2023-01-11T17:52:54.468Z,98746.61
2023-01-11T17:58:14.121Z,98750.83
2023-01-11T18:03:18.662Z,98750.06
2023-01-11T18:08:22.579Z,98747.58
2023-01-11T18:13:34.836Z,98746.00
2023-01-11T18:18:47.150Z,98747.09
2023-01-11T18:23:49.002Z,98740.27
2023-01-11T18:28:51.318Z,98736.36
2023-01-11T18:33:55.687Z,98734.46
2023-01-11T18:38:57.606Z,98718.38
2023-01-11T18:44:00.609Z,98714.86
2023-01-11T18:49:02.301Z,98716.21
2023-01-11T18:54:04.076Z,98719.34
2023-01-11T18:59:06.356Z,98718.25
2023-01-11T19:04:10.248Z,98719.39
2023-01-11T19:09:12.163Z,98724.08
2023-01-11T19:14:14.179Z,98721.36
2023-01-11T19:19:16.255Z,98719.33
2023-01-11T19:24:17.871Z,98715.09
2023-01-11T19:29:20.396Z,98720.34
2023-01-11T19:34:23.505Z,98723.81
2023-01-11T19:39:26.102Z,98726.20
2023-01-11T19:44:37.246Z,98728.52
2023-01-11T19:49:40.101Z,98730.98
2023-01-11T19:54:43.370Z,98739.79
2023-01-11T19:59:45.062Z,98745.59
2023-01-11T20:04:46.965Z,98752.30
2023-01-11T20:09:49.131Z,98773.39
2023-01-11T20:14:50.862Z,98772.98
2023-01-11T20:19:54.849Z,98780.55
2023-01-11T20:24:56.940Z,98795.88
2023-01-11T20:29:58.672Z,98796.98
2023-01-11T20:35:00.335Z,98797.73
2023-01-11T20:40:02.105Z,98797.95
2023-01-11T20:45:04.564Z,98789.13
2023-01-11T20:50:07.371Z,98783.31
2023-01-11T20:55:10.385Z,98789.29
2023-01-11T21:00:13.838Z,98798.13
2023-01-11T21:05:16.382Z,98807.20
2023-01-11T21:10:18.564Z,98805.38
2023-01-11T21:15:20.490Z,98806.75
2023-01-11T21:20:22.432Z,98805.37
2023-01-11T21:25:24.242Z,98809.73
2023-01-11T21:30:25.879Z,98812.84
2023-01-11T21:35:27.684Z,98814.46
2023-01-11T21:40:30.120Z,98815.56
2023-01-11T21:45:31.760Z,98809.63
2023-01-11T21:50:33.510Z,98820.34
2023-01-11T21:55:35.345Z,98827.88
2023-01-11T22:00:37.036Z,98826.17
2023-01-11T22:05:38.857Z,98824.15
2023-01-11T22:10:40.583Z,98824.13
2023-01-11T22:15:42.252Z,98824.64
2023-01-11T22:20:44.007Z,98830.18
2023-01-11T22:25:45.716Z,98836.73
2023-01-11T22:30:49.053Z,98843.91
2023-01-11T22:35:54.906Z,98843.06
2023-01-11T22:41:00.308Z,98845.98
2023-01-11T22:46:02.646Z,98853.90
2023-01-11T22:51:11.617Z,98860.60
2023-01-11T22:56:14.911Z,98860.95
2023-01-11T23:01:27.768Z,98861.92
2023-01-11T23:06:32.424Z,98866.45
2023-01-11T23:11:56.587Z,98868.49
2023-01-11T23:17:05.715Z,98868.54
2023-01-11T23:22:09.007Z,98874.73
2023-01-11T23:27:10.705Z,98874.69
2023-01-11T23:32:12.455Z,98873.23
2023-01-11T23:37:14.147Z,98877.61
2023-01-11T23:42:27.985Z,98878.35
2023-01-11T23:47:31.453Z,98881.02
2023-01-11T23:52:33.118Z,98883.42
2023-01-11T23:57:34.867Z,98888.36
